sensor_id;sensor_type;location;lat;lon;timestamp;pressure;altitude;pressure_sealevel;temperature
78369;BMP280;71113;43.092;-89.268;2023-07-08T00:01:15;97889.31;;;17.90
78369;BMP280;71113;43.092;-89.268;2023-07-08T00:03:42;97885.16;;;17.89
78369;BMP280;71113;43.092;-89.268;2023-07-08T00:06:25;97898.31;;;17.98
78369;BMP280;71113;43.092;-89.268;2023-07-08T00:08:51;97898.00;;;17.91
78369;BMP280;71113;43.092;-89.268;2023-07-08T00:11:17;97902.88;;;17.80
78369;BMP280;71113;43.092;-89.268;2023-07-08T00:13:43;97904.31;;;17.78
78369;BMP280;71113;43.092;-89.268;2023-07-08T00:16:14;97907.47;;;17.62
78369;BMP280;71113;43.092;-89.268;2023-07-08T00:18:41;97908.56;;;17.53
78369;BMP280;71113;43.092;-89.268;2023-07-08T00:21:11;97900.00;;;17.64
78369;BMP280;71113;43.092;-89.268;2023-07-08T00:23:42;97890.88;;;17.62
78369;BMP280;71113;43.092;-89.268;2023-07-08T00:26:29;97893.88;;;17.43
78369;BMP280;71113;43.092;-89.268;2023-07-08T00:28:56;97887.19;;;17.46
78369;BMP280;71113;43.092;-89.268;2023-07-08T00:31:23;97892.31;;;17.42
78369;BMP280;71113;43.092;-89.268;2023-07-08T00:33:52;97885.78;;;17.86
78369;BMP280;71113;43.092;-89.268;2023-07-08T00:36:22;97897.59;;;18.72
78369;BMP280;71113;43.092;-89.268;2023-07-08T00:38:49;97895.66;;;19.14
78369;BMP280;71113;43.092;-89.268;2023-07-08T00:41:21;97903.50;;;19.35
78369;BMP280;71113;43.092;-89.268;2023-07-08T00:43:58;97915.78;;;19.52
78369;BMP280;71113;43.092;-89.268;2023-07-08T00:48:59;97922.38;;;19.70
78369;BMP280;71113;43.092;-89.268;2023-07-08T00:51:25;97919.19;;;19.77
78369;BMP280;71113;43.092;-89.268;2023-07-08T00:53:51;97930.56;;;19.90
78369;BMP280;71113;43.092;-89.268;2023-07-08T00:56:29;97928.88;;;19.97
78369;BMP280;71113;43.092;-89.268;2023-07-08T00:59:04;97931.31;;;20.02
78369;BMP280;71113;43.092;-89.268;2023-07-08T01:01:32;97928.72;;;20.18
78369;BMP280;71113;43.092;-89.268;2023-07-08T01:04:06;97918.69;;;20.24
78369;BMP280;71113;43.092;-89.268;2023-07-08T01:06:35;97928.72;;;20.30
78369;BMP280;71113;43.092;-89.268;2023-07-08T01:09:06;97926.84;;;20.31
78369;BMP280;71113;43.092;-89.268;2023-07-08T01:11:34;97930.47;;;20.38
78369;BMP280;71113;43.092;-89.268;2023-07-08T01:14:03;97925.81;;;20.48
78369;BMP280;71113;43.092;-89.268;2023-07-08T01:16:31;97929.53;;;20.59
78369;BMP280;71113;43.092;-89.268;2023-07-08T01:19:03;97924.41;;;20.66
78369;BMP280;71113;43.092;-89.268;2023-07-08T01:22:06;97914.47;;;20.23
78369;BMP280;71113;43.092;-89.268;2023-07-08T01:24:33;97923.06;;;19.55
78369;BMP280;71113;43.092;-89.268;2023-07-08T01:27:01;97931.22;;;19.17
78369;BMP280;71113;43.092;-89.268;2023-07-08T01:29:28;97929.50;;;18.88
78369;BMP280;71113;43.092;-89.268;2023-07-08T01:31:58;97934.81;;;18.67
78369;BMP280;71113;43.092;-89.268;2023-07-08T01:34:37;97926.41;;;18.44
78369;BMP280;71113;43.092;-89.268;2023-07-08T01:37:05;97921.00;;;18.41
78369;BMP280;71113;43.092;-89.268;2023-07-08T01:39:32;97930.41;;;18.30
78369;BMP280;71113;43.092;-89.268;2023-07-08T01:41:59;97922.06;;;18.19
78369;BMP280;71113;43.092;-89.268;2023-07-08T01:44:36;97920.13;;;18.07
78369;BMP280;71113;43.092;-89.268;2023-07-08T01:47:13;97917.91;;;17.88
78369;BMP280;71113;43.092;-89.268;2023-07-08T01:49:41;97924.69;;;17.98
78369;BMP280;71113;43.092;-89.268;2023-07-08T01:52:09;97929.53;;;17.87
78369;BMP280;71113;43.092;-89.268;2023-07-08T01:54:36;97937.06;;;17.68
78369;BMP280;71113;43.092;-89.268;2023-07-08T01:57:02;97932.09;;;17.67
78369;BMP280;71113;43.092;-89.268;2023-07-08T01:59:28;97940.00;;;17.75
78369;BMP280;71113;43.092;-89.268;2023-07-08T02:01:55;97931.16;;;17.71
78369;BMP280;71113;43.092;-89.268;2023-07-08T02:04:22;97931.66;;;17.56
78369;BMP280;71113;43.092;-89.268;2023-07-08T02:06:57;97930.56;;;17.57
78369;BMP280;71113;43.092;-89.268;2023-07-08T02:09:43;97928.94;;;17.44
78369;BMP280;71113;43.092;-89.268;2023-07-08T02:12:09;97932.47;;;17.48
78369;BMP280;71113;43.092;-89.268;2023-07-08T02:14:35;97931.56;;;17.44
78369;BMP280;71113;43.092;-89.268;2023-07-08T02:17:01;97927.22;;;17.48
78369;BMP280;71113;43.092;-89.268;2023-07-08T02:19:31;97934.50;;;17.42
78369;BMP280;71113;43.092;-89.268;2023-07-08T02:21:57;97937.34;;;17.28
78369;BMP280;71113;43.092;-89.268;2023-07-08T02:24:23;97940.13;;;17.32
78369;BMP280;71113;43.092;-89.268;2023-07-08T02:26:49;97943.22;;;17.34
78369;BMP280;71113;43.092;-89.268;2023-07-08T02:29:15;97940.25;;;17.27
78369;BMP280;71113;43.092;-89.268;2023-07-08T02:31:40;97934.56;;;17.25
78369;BMP280;71113;43.092;-89.268;2023-07-08T02:34:06;97938.88;;;17.76
78369;BMP280;71113;43.092;-89.268;2023-07-08T02:36:33;97934.63;;;18.51
78369;BMP280;71113;43.092;-89.268;2023-07-08T02:39:00;97923.31;;;18.84
78369;BMP280;71113;43.092;-89.268;2023-07-08T02:41:26;97913.81;;;19.16
78369;BMP280;71113;43.092;-89.268;2023-07-08T02:43:51;97912.00;;;19.29
78369;BMP280;71113;43.092;-89.268;2023-07-08T02:46:17;97908.59;;;19.40
78369;BMP280;71113;43.092;-89.268;2023-07-08T02:48:43;97907.84;;;19.52
78369;BMP280;71113;43.092;-89.268;2023-07-08T02:51:09;97893.25;;;19.58
78369;BMP280;71113;43.092;-89.268;2023-07-08T02:53:35;97900.78;;;19.56
78369;BMP280;71113;43.092;-89.268;2023-07-08T02:56:01;97905.75;;;19.70
78369;BMP280;71113;43.092;-89.268;2023-07-08T02:58:27;97911.22;;;19.89
78369;BMP280;71113;43.092;-89.268;2023-07-08T03:00:54;97902.75;;;19.96
78369;BMP280;71113;43.092;-89.268;2023-07-08T03:03:21;97897.00;;;20.06
78369;BMP280;71113;43.092;-89.268;2023-07-08T03:05:57;97896.22;;;20.18
78369;BMP280;71113;43.092;-89.268;2023-07-08T03:08:25;97894.53;;;20.25
78369;BMP280;71113;43.092;-89.268;2023-07-08T03:10:59;97902.25;;;20.30
78369;BMP280;71113;43.092;-89.268;2023-07-08T03:13:25;97904.03;;;20.26
78369;BMP280;71113;43.092;-89.268;2023-07-08T03:15:51;97889.75;;;20.31
78369;BMP280;71113;43.092;-89.268;2023-07-08T03:18:18;97896.56;;;20.44
78369;BMP280;71113;43.092;-89.268;2023-07-08T03:20:48;97889.28;;;20.41
78369;BMP280;71113;43.092;-89.268;2023-07-08T03:23:14;97885.72;;;20.49
78369;BMP280;71113;43.092;-89.268;2023-07-08T03:25:40;97885.50;;;20.70
78369;BMP280;71113;43.092;-89.268;2023-07-08T03:28:06;97891.25;;;20.72
78369;BMP280;71113;43.092;-89.268;2023-07-08T03:30:33;97888.22;;;20.58
78369;BMP280;71113;43.092;-89.268;2023-07-08T03:33:00;97879.34;;;20.66
78369;BMP280;71113;43.092;-89.268;2023-07-08T03:35:26;97881.78;;;20.71
78369;BMP280;71113;43.092;-89.268;2023-07-08T03:37:52;97876.06;;;20.85
78369;BMP280;71113;43.092;-89.268;2023-07-08T03:40:18;97881.69;;;20.83
78369;BMP280;71113;43.092;-89.268;2023-07-08T03:42:45;97878.03;;;20.88
78369;BMP280;71113;43.092;-89.268;2023-07-08T03:45:10;97891.53;;;20.98
78369;BMP280;71113;43.092;-89.268;2023-07-08T03:47:36;97873.66;;;20.95
78369;BMP280;71113;43.092;-89.268;2023-07-08T03:50:02;97868.44;;;20.83
78369;BMP280;71113;43.092;-89.268;2023-07-08T03:52:29;97874.78;;;20.94
78369;BMP280;71113;43.092;-89.268;2023-07-08T03:54:54;97878.41;;;21.02
78369;BMP280;71113;43.092;-89.268;2023-07-08T03:57:41;97882.28;;;21.39
78369;BMP280;71113;43.092;-89.268;2023-07-08T04:00:07;97887.88;;;21.34
78369;BMP280;71113;43.092;-89.268;2023-07-08T04:02:44;97889.84;;;21.37
78369;BMP280;71113;43.092;-89.268;2023-07-08T04:05:13;97879.25;;;21.37
78369;BMP280;71113;43.092;-89.268;2023-07-08T04:07:40;97880.19;;;21.45
78369;BMP280;71113;43.092;-89.268;2023-07-08T04:10:07;97882.22;;;21.52
78369;BMP280;71113;43.092;-89.268;2023-07-08T04:12:33;97881.19;;;21.56
78369;BMP280;71113;43.092;-89.268;2023-07-08T04:14:59;97886.31;;;21.65
78369;BMP280;71113;43.092;-89.268;2023-07-08T04:17:25;97873.78;;;21.65
78369;BMP280;71113;43.092;-89.268;2023-07-08T04:19:51;97877.44;;;21.42
78369;BMP280;71113;43.092;-89.268;2023-07-08T04:22:17;97878.56;;;21.41
78369;BMP280;71113;43.092;-89.268;2023-07-08T04:24:43;97882.41;;;21.78
78369;BMP280;71113;43.092;-89.268;2023-07-08T04:27:14;97884.06;;;21.83
78369;BMP280;71113;43.092;-89.268;2023-07-08T04:29:41;97887.72;;;21.78
78369;BMP280;71113;43.092;-89.268;2023-07-08T04:32:07;97895.44;;;21.83
78369;BMP280;71113;43.092;-89.268;2023-07-08T04:34:33;97895.06;;;21.85
78369;BMP280;71113;43.092;-89.268;2023-07-08T04:36:59;97887.94;;;21.89
78369;BMP280;71113;43.092;-89.268;2023-07-08T04:39:25;97891.78;;;21.91
78369;BMP280;71113;43.092;-89.268;2023-07-08T04:41:51;97890.44;;;21.97
78369;BMP280;71113;43.092;-89.268;2023-07-08T04:44:17;97891.28;;;22.01
78369;BMP280;71113;43.092;-89.268;2023-07-08T04:46:55;97885.63;;;22.03
78369;BMP280;71113;43.092;-89.268;2023-07-08T04:49:22;97881.81;;;22.04
78369;BMP280;71113;43.092;-89.268;2023-07-08T04:51:50;97884.53;;;22.08
78369;BMP280;71113;43.092;-89.268;2023-07-08T04:54:17;97873.84;;;22.04
78369;BMP280;71113;43.092;-89.268;2023-07-08T04:56:45;97872.47;;;22.10
78369;BMP280;71113;43.092;-89.268;2023-07-08T04:59:14;97865.94;;;22.08
78369;BMP280;71113;43.092;-89.268;2023-07-08T05:01:41;97867.69;;;22.00
78369;BMP280;71113;43.092;-89.268;2023-07-08T05:04:09;97869.38;;;22.08
78369;BMP280;71113;43.092;-89.268;2023-07-08T05:06:35;97867.63;;;22.16
78369;BMP280;71113;43.092;-89.268;2023-07-08T05:09:02;97872.34;;;22.22
78369;BMP280;71113;43.092;-89.268;2023-07-08T05:11:28;97870.72;;;22.18
78369;BMP280;71113;43.092;-89.268;2023-07-08T05:13:55;97874.50;;;22.17
78369;BMP280;71113;43.092;-89.268;2023-07-08T05:16:20;97880.59;;;22.17
78369;BMP280;71113;43.092;-89.268;2023-07-08T05:18:46;97889.91;;;21.92
78369;BMP280;71113;43.092;-89.268;2023-07-08T05:21:13;97890.75;;;22.15
78369;BMP280;71113;43.092;-89.268;2023-07-08T05:23:39;97879.03;;;22.16
78369;BMP280;71113;43.092;-89.268;2023-07-08T05:26:06;97873.59;;;22.28
78369;BMP280;71113;43.092;-89.268;2023-07-08T05:28:33;97874.75;;;22.12
78369;BMP280;71113;43.092;-89.268;2023-07-08T05:30:59;97872.34;;;22.03
78369;BMP280;71113;43.092;-89.268;2023-07-08T05:33:29;97877.66;;;22.03
78369;BMP280;71113;43.092;-89.268;2023-07-08T05:35:55;97876.81;;;21.99
78369;BMP280;71113;43.092;-89.268;2023-07-08T05:38:21;97881.38;;;21.63
78369;BMP280;71113;43.092;-89.268;2023-07-08T05:40:53;97886.41;;;21.88
78369;BMP280;71113;43.092;-89.268;2023-07-08T05:43:19;97866.91;;;21.99
78369;BMP280;71113;43.092;-89.268;2023-07-08T05:45:46;97869.88;;;21.59
78369;BMP280;71113;43.092;-89.268;2023-07-08T05:48:18;97870.47;;;21.53
78369;BMP280;71113;43.092;-89.268;2023-07-08T05:50:45;97883.78;;;21.37
78369;BMP280;71113;43.092;-89.268;2023-07-08T05:53:11;97882.78;;;21.61
78369;BMP280;71113;43.092;-89.268;2023-07-08T05:55:39;97879.66;;;21.55
78369;BMP280;71113;43.092;-89.268;2023-07-08T05:58:05;97874.50;;;21.62
78369;BMP280;71113;43.092;-89.268;2023-07-08T06:00:31;97863.06;;;21.97
78369;BMP280;71113;43.092;-89.268;2023-07-08T06:03:17;97859.41;;;22.21
78369;BMP280;71113;43.092;-89.268;2023-07-08T06:05:43;97855.03;;;22.32
78369;BMP280;71113;43.092;-89.268;2023-07-08T06:08:09;97851.16;;;22.26
78369;BMP280;71113;43.092;-89.268;2023-07-08T06:10:35;97851.44;;;22.21
78369;BMP280;71113;43.092;-89.268;2023-07-08T06:13:06;97848.94;;;22.31
78369;BMP280;71113;43.092;-89.268;2023-07-08T06:15:32;97845.03;;;22.45
78369;BMP280;71113;43.092;-89.268;2023-07-08T06:17:58;97857.13;;;22.42
78369;BMP280;71113;43.092;-89.268;2023-07-08T06:20:28;97850.84;;;22.31
78369;BMP280;71113;43.092;-89.268;2023-07-08T06:22:54;97853.28;;;22.40
78369;BMP280;71113;43.092;-89.268;2023-07-08T06:25:20;97860.97;;;22.45
78369;BMP280;71113;43.092;-89.268;2023-07-08T06:27:46;97861.25;;;22.20
78369;BMP280;71113;43.092;-89.268;2023-07-08T06:30:12;97859.78;;;22.42
78369;BMP280;71113;43.092;-89.268;2023-07-08T06:32:38;97848.69;;;22.37
78369;BMP280;71113;43.092;-89.268;2023-07-08T06:35:04;97854.91;;;22.44
78369;BMP280;71113;43.092;-89.268;2023-07-08T06:37:30;97845.44;;;22.27
78369;BMP280;71113;43.092;-89.268;2023-07-08T06:39:56;97845.44;;;22.27
78369;BMP280;71113;43.092;-89.268;2023-07-08T06:42:22;97836.63;;;22.43
78369;BMP280;71113;43.092;-89.268;2023-07-08T06:44:48;97829.91;;;22.49
78369;BMP280;71113;43.092;-89.268;2023-07-08T06:47:19;97815.13;;;22.51
78369;BMP280;71113;43.092;-89.268;2023-07-08T06:49:46;97813.00;;;22.38
78369;BMP280;71113;43.092;-89.268;2023-07-08T06:52:13;97811.22;;;22.22
78369;BMP280;71113;43.092;-89.268;2023-07-08T06:54:39;97804.56;;;22.13
78369;BMP280;71113;43.092;-89.268;2023-07-08T06:57:05;97813.06;;;21.99
78369;BMP280;71113;43.092;-89.268;2023-07-08T06:59:31;97815.78;;;22.22
78369;BMP280;71113;43.092;-89.268;2023-07-08T07:01:57;97818.03;;;22.23
78369;BMP280;71113;43.092;-89.268;2023-07-08T07:04:23;97816.16;;;22.24
78369;BMP280;71113;43.092;-89.268;2023-07-08T07:06:49;97818.25;;;22.34
78369;BMP280;71113;43.092;-89.268;2023-07-08T07:09:14;97818.63;;;22.32
78369;BMP280;71113;43.092;-89.268;2023-07-08T07:11:40;97813.88;;;22.22
78369;BMP280;71113;43.092;-89.268;2023-07-08T07:14:06;97816.09;;;21.82
78369;BMP280;71113;43.092;-89.268;2023-07-08T07:16:32;97820.56;;;21.97
78369;BMP280;71113;43.092;-89.268;2023-07-08T07:18:58;97824.19;;;21.69
78369;BMP280;71113;43.092;-89.268;2023-07-08T07:21:24;97818.28;;;21.95
78369;BMP280;71113;43.092;-89.268;2023-07-08T07:23:50;97827.91;;;21.84
78369;BMP280;71113;43.092;-89.268;2023-07-08T07:26:16;97824.78;;;21.44
78369;BMP280;71113;43.092;-89.268;2023-07-08T07:28:42;97821.78;;;21.45
78369;BMP280;71113;43.092;-89.268;2023-07-08T07:31:07;97820.25;;;21.44
78369;BMP280;71113;43.092;-89.268;2023-07-08T07:33:36;97823.06;;;21.35
78369;BMP280;71113;43.092;-89.268;2023-07-08T07:36:02;97821.66;;;21.06
78369;BMP280;71113;43.092;-89.268;2023-07-08T07:38:29;97832.28;;;21.22
78369;BMP280;71113;43.092;-89.268;2023-07-08T07:40:56;97825.78;;;21.55
78369;BMP280;71113;43.092;-89.268;2023-07-08T07:43:22;97834.28;;;21.80
78369;BMP280;71113;43.092;-89.268;2023-07-08T07:45:54;97834.81;;;21.69
78369;BMP280;71113;43.092;-89.268;2023-07-08T07:48:20;97834.03;;;21.50
78369;BMP280;71113;43.092;-89.268;2023-07-08T07:50:47;97836.59;;;21.46
78369;BMP280;71113;43.092;-89.268;2023-07-08T07:53:13;97834.13;;;21.92
78369;BMP280;71113;43.092;-89.268;2023-07-08T07:55:39;97842.56;;;21.94
78369;BMP280;71113;43.092;-89.268;2023-07-08T07:58:05;97842.41;;;21.52
78369;BMP280;71113;43.092;-89.268;2023-07-08T08:00:33;97838.50;;;21.30
78369;BMP280;71113;43.092;-89.268;2023-07-08T08:02:59;97840.97;;;21.38
78369;BMP280;71113;43.092;-89.268;2023-07-08T08:05:25;97830.81;;;21.60
78369;BMP280;71113;43.092;-89.268;2023-07-08T08:07:51;97839.09;;;21.39
78369;BMP280;71113;43.092;-89.268;2023-07-08T08:10:17;97841.78;;;21.58
78369;BMP280;71113;43.092;-89.268;2023-07-08T08:12:43;97850.97;;;21.45
78369;BMP280;71113;43.092;-89.268;2023-07-08T08:15:09;97842.00;;;21.02
78369;BMP280;71113;43.092;-89.268;2023-07-08T08:17:35;97849.13;;;21.14
78369;BMP280;71113;43.092;-89.268;2023-07-08T08:20:01;97851.88;;;21.18
78369;BMP280;71113;43.092;-89.268;2023-07-08T08:22:27;97853.81;;;21.36
78369;BMP280;71113;43.092;-89.268;2023-07-08T08:24:53;97851.84;;;21.33
78369;BMP280;71113;43.092;-89.268;2023-07-08T08:27:19;97859.22;;;21.08
78369;BMP280;71113;43.092;-89.268;2023-07-08T08:29:45;97852.97;;;21.01
78369;BMP280;71113;43.092;-89.268;2023-07-08T08:32:11;97849.81;;;21.27
78369;BMP280;71113;43.092;-89.268;2023-07-08T08:34:37;97847.06;;;21.07
78369;BMP280;71113;43.092;-89.268;2023-07-08T08:37:03;97839.56;;;20.94
78369;BMP280;71113;43.092;-89.268;2023-07-08T08:39:29;97841.06;;;20.79
78369;BMP280;71113;43.092;-89.268;2023-07-08T08:41:55;97841.50;;;20.81
78369;BMP280;71113;43.092;-89.268;2023-07-08T08:44:31;97839.97;;;20.96
78369;BMP280;71113;43.092;-89.268;2023-07-08T08:49:41;97833.47;;;21.25
78369;BMP280;71113;43.092;-89.268;2023-07-08T08:52:08;97828.78;;;21.18
78369;BMP280;71113;43.092;-89.268;2023-07-08T08:54:35;97826.31;;;20.94
78369;BMP280;71113;43.092;-89.268;2023-07-08T08:59:55;97829.81;;;20.98
78369;BMP280;71113;43.092;-89.268;2023-07-08T09:04:50;97832.34;;;20.94
78369;BMP280;71113;43.092;-89.268;2023-07-08T09:07:18;97827.91;;;21.14
78369;BMP280;71113;43.092;-89.268;2023-07-08T09:10:02;97829.03;;;20.97
78369;BMP280;71113;43.092;-89.268;2023-07-08T09:12:30;97823.44;;;21.02
78369;BMP280;71113;43.092;-89.268;2023-07-08T09:14:58;97825.75;;;21.04
78369;BMP280;71113;43.092;-89.268;2023-07-08T09:17:30;97827.03;;;20.94
78369;BMP280;71113;43.092;-89.268;2023-07-08T09:22:44;97825.50;;;20.93
78369;BMP280;71113;43.092;-89.268;2023-07-08T09:25:34;97832.44;;;20.82
78369;BMP280;71113;43.092;-89.268;2023-07-08T09:28:01;97824.59;;;21.01
78369;BMP280;71113;43.092;-89.268;2023-07-08T09:30:27;97817.97;;;20.95
78369;BMP280;71113;43.092;-89.268;2023-07-08T09:32:56;97824.81;;;20.96
78369;BMP280;71113;43.092;-89.268;2023-07-08T09:35:25;97825.25;;;20.98
78369;BMP280;71113;43.092;-89.268;2023-07-08T09:37:52;97825.63;;;20.53
78369;BMP280;71113;43.092;-89.268;2023-07-08T09:40:28;97819.66;;;21.35
78369;BMP280;71113;43.092;-89.268;2023-07-08T09:43:01;97818.31;;;21.60
78369;BMP280;71113;43.092;-89.268;2023-07-08T09:45:28;97821.81;;;21.64
78369;BMP280;71113;43.092;-89.268;2023-07-08T09:47:55;97823.34;;;21.65
78369;BMP280;71113;43.092;-89.268;2023-07-08T09:50:25;97830.47;;;21.61
78369;BMP280;71113;43.092;-89.268;2023-07-08T09:52:54;97826.00;;;21.30
78369;BMP280;71113;43.092;-89.268;2023-07-08T09:55:23;97831.97;;;21.43
78369;BMP280;71113;43.092;-89.268;2023-07-08T09:57:52;97838.44;;;21.11
78369;BMP280;71113;43.092;-89.268;2023-07-08T10:00:28;97843.91;;;21.33
78369;BMP280;71113;43.092;-89.268;2023-07-08T10:02:56;97841.63;;;21.67
78369;BMP280;71113;43.092;-89.268;2023-07-08T10:05:33;97837.69;;;21.10
78369;BMP280;71113;43.092;-89.268;2023-07-08T10:08:02;97849.56;;;20.57
78369;BMP280;71113;43.092;-89.268;2023-07-08T10:10:37;97851.13;;;19.90
78369;BMP280;71113;43.092;-89.268;2023-07-08T10:13:33;97844.78;;;19.78
78369;BMP280;71113;43.092;-89.268;2023-07-08T10:16:16;97849.94;;;19.50
78369;BMP280;71113;43.092;-89.268;2023-07-08T10:18:43;97844.34;;;19.40
78369;BMP280;71113;43.092;-89.268;2023-07-08T10:26:30;97843.38;;;20.09
78369;BMP280;71113;43.092;-89.268;2023-07-08T10:35:11;97832.44;;;21.14
78369;BMP280;71113;43.092;-89.268;2023-07-08T10:49:37;97828.78;;;21.53
78369;BMP280;71113;43.092;-89.268;2023-07-08T10:52:43;97823.56;;;21.57
78369;BMP280;71113;43.092;-89.268;2023-07-08T11:00:59;97827.25;;;21.52
78369;BMP280;71113;43.092;-89.268;2023-07-08T11:03:51;97831.78;;;21.52
78369;BMP280;71113;43.092;-89.268;2023-07-08T11:06:26;97833.41;;;21.56
78369;BMP280;71113;43.092;-89.268;2023-07-08T11:09:00;97833.28;;;21.68
78369;BMP280;71113;43.092;-89.268;2023-07-08T11:11:38;97841.16;;;21.65
78369;BMP280;71113;43.092;-89.268;2023-07-08T11:16:45;97849.78;;;21.78
78369;BMP280;71113;43.092;-89.268;2023-07-08T11:19:18;97846.81;;;21.79
78369;BMP280;71113;43.092;-89.268;2023-07-08T11:21:51;97854.47;;;21.84
78369;BMP280;71113;43.092;-89.268;2023-07-08T11:24:44;97843.31;;;21.94
78369;BMP280;71113;43.092;-89.268;2023-07-08T11:32:39;97856.28;;;21.99
78369;BMP280;71113;43.092;-89.268;2023-07-08T11:35:16;97862.69;;;21.95
78369;BMP280;71113;43.092;-89.268;2023-07-08T11:37:44;97864.72;;;22.01
78369;BMP280;71113;43.092;-89.268;2023-07-08T11:40:20;97862.63;;;22.11
78369;BMP280;71113;43.092;-89.268;2023-07-08T11:42:51;97864.66;;;22.17
78369;BMP280;71113;43.092;-89.268;2023-07-08T11:47:48;97869.19;;;21.97
78369;BMP280;71113;43.092;-89.268;2023-07-08T11:53:00;97878.25;;;20.67
78369;BMP280;71113;43.092;-89.268;2023-07-08T11:55:38;97884.88;;;20.05
78369;BMP280;71113;43.092;-89.268;2023-07-08T12:04:15;97893.41;;;19.04
78369;BMP280;71113;43.092;-89.268;2023-07-08T12:07:06;97893.84;;;19.64
78369;BMP280;71113;43.092;-89.268;2023-07-08T12:09:36;97883.06;;;20.77
78369;BMP280;71113;43.092;-89.268;2023-07-08T12:12:05;97880.00;;;21.06
78369;BMP280;71113;43.092;-89.268;2023-07-08T12:14:32;97874.97;;;21.17
78369;BMP280;71113;43.092;-89.268;2023-07-08T12:16:58;97881.22;;;21.25
78369;BMP280;71113;43.092;-89.268;2023-07-08T12:19:27;97887.47;;;21.32
78369;BMP280;71113;43.092;-89.268;2023-07-08T12:21:56;97887.13;;;21.34
78369;BMP280;71113;43.092;-89.268;2023-07-08T12:24:22;97889.25;;;21.44
78369;BMP280;71113;43.092;-89.268;2023-07-08T12:26:52;97887.53;;;21.52
78369;BMP280;71113;43.092;-89.268;2023-07-08T12:29:18;97889.84;;;21.53
78369;BMP280;71113;43.092;-89.268;2023-07-08T12:31:44;97879.81;;;21.62
78369;BMP280;71113;43.092;-89.268;2023-07-08T12:34:13;97884.03;;;21.63
78369;BMP280;71113;43.092;-89.268;2023-07-08T12:36:41;97884.41;;;21.65
78369;BMP280;71113;43.092;-89.268;2023-07-08T12:39:11;97882.59;;;21.69
78369;BMP280;71113;43.092;-89.268;2023-07-08T12:41:41;97891.50;;;21.77
78369;BMP280;71113;43.092;-89.268;2023-07-08T12:44:18;97880.94;;;21.81
78369;BMP280;71113;43.092;-89.268;2023-07-08T12:46:47;97879.66;;;21.90
78369;BMP280;71113;43.092;-89.268;2023-07-08T12:49:15;97878.75;;;21.83
78369;BMP280;71113;43.092;-89.268;2023-07-08T12:51:43;97875.72;;;21.84
78369;BMP280;71113;43.092;-89.268;2023-07-08T12:54:11;97875.91;;;21.25
78369;BMP280;71113;43.092;-89.268;2023-07-08T12:56:39;97875.06;;;20.33
78369;BMP280;71113;43.092;-89.268;2023-07-08T12:59:06;97880.03;;;19.58
78369;BMP280;71113;43.092;-89.268;2023-07-08T13:01:34;97874.88;;;19.37
78369;BMP280;71113;43.092;-89.268;2023-07-08T13:04:21;97862.78;;;19.03
78369;BMP280;71113;43.092;-89.268;2023-07-08T13:06:48;97861.59;;;18.68
78369;BMP280;71113;43.092;-89.268;2023-07-08T13:11:51;97851.63;;;18.52
78369;BMP280;71113;43.092;-89.268;2023-07-08T13:14:19;97858.97;;;18.26
78369;BMP280;71113;43.092;-89.268;2023-07-08T13:16:45;97854.88;;;18.37
78369;BMP280;71113;43.092;-89.268;2023-07-08T13:19:12;97855.81;;;18.12
78369;BMP280;71113;43.092;-89.268;2023-07-08T13:21:39;97855.56;;;18.05
78369;BMP280;71113;43.092;-89.268;2023-07-08T13:24:11;97860.50;;;18.06
78369;BMP280;71113;43.092;-89.268;2023-07-08T13:26:38;97868.44;;;18.48
78369;BMP280;71113;43.092;-89.268;2023-07-08T13:29:11;97868.56;;;19.54
78369;BMP280;71113;43.092;-89.268;2023-07-08T13:31:38;97872.50;;;19.97
78369;BMP280;71113;43.092;-89.268;2023-07-08T13:34:14;97870.31;;;20.27
78369;BMP280;71113;43.092;-89.268;2023-07-08T13:36:44;97875.59;;;20.39
78369;BMP280;71113;43.092;-89.268;2023-07-08T13:39:17;97880.06;;;20.51
78369;BMP280;71113;43.092;-89.268;2023-07-08T13:41:45;97876.94;;;20.61
78369;BMP280;71113;43.092;-89.268;2023-07-08T13:44:12;97879.03;;;20.67
78369;BMP280;71113;43.092;-89.268;2023-07-08T13:49:15;97870.66;;;20.81
78369;BMP280;71113;43.092;-89.268;2023-07-08T13:51:44;97861.59;;;20.82
78369;BMP280;71113;43.092;-89.268;2023-07-08T13:54:21;97872.97;;;20.98
78369;BMP280;71113;43.092;-89.268;2023-07-08T13:56:48;97868.75;;;21.10
78369;BMP280;71113;43.092;-89.268;2023-07-08T13:59:22;97860.88;;;20.97
78369;BMP280;71113;43.092;-89.268;2023-07-08T14:01:51;97861.88;;;21.08
78369;BMP280;71113;43.092;-89.268;2023-07-08T14:04:20;97855.63;;;21.17
78369;BMP280;71113;43.092;-89.268;2023-07-08T14:06:47;97861.63;;;21.29
78369;BMP280;71113;43.092;-89.268;2023-07-08T14:09:20;97869.31;;;21.34
78369;BMP280;71113;43.092;-89.268;2023-07-08T14:11:48;97860.75;;;21.41
78369;BMP280;71113;43.092;-89.268;2023-07-08T14:14:14;97866.63;;;21.50
78369;BMP280;71113;43.092;-89.268;2023-07-08T14:16:46;97864.84;;;21.54
78369;BMP280;71113;43.092;-89.268;2023-07-08T14:19:15;97873.03;;;21.65
78369;BMP280;71113;43.092;-89.268;2023-07-08T14:21:42;97870.44;;;21.68
78369;BMP280;71113;43.092;-89.268;2023-07-08T14:24:11;97860.22;;;21.67
78369;BMP280;71113;43.092;-89.268;2023-07-08T14:26:41;97859.91;;;21.72
78369;BMP280;71113;43.092;-89.268;2023-07-08T14:29:07;97857.56;;;21.67
78369;BMP280;71113;43.092;-89.268;2023-07-08T14:31:33;97858.47;;;21.75
78369;BMP280;71113;43.092;-89.268;2023-07-08T14:34:07;97855.25;;;21.85
78369;BMP280;71113;43.092;-89.268;2023-07-08T14:36:34;97863.66;;;21.87
78369;BMP280;71113;43.092;-89.268;2023-07-08T14:39:00;97868.28;;;21.90
78369;BMP280;71113;43.092;-89.268;2023-07-08T14:41:27;97869.19;;;21.97
78369;BMP280;71113;43.092;-89.268;2023-07-08T14:43:54;97856.75;;;22.01
78369;BMP280;71113;43.092;-89.268;2023-07-08T14:46:20;97853.03;;;22.06
78369;BMP280;71113;43.092;-89.268;2023-07-08T14:48:46;97854.66;;;22.11
78369;BMP280;71113;43.092;-89.268;2023-07-08T14:51:12;97851.69;;;22.16
78369;BMP280;71113;43.092;-89.268;2023-07-08T14:53:38;97846.88;;;22.21
78369;BMP280;71113;43.092;-89.268;2023-07-08T14:56:14;97852.97;;;22.22
78369;BMP280;71113;43.092;-89.268;2023-07-08T14:58:43;97850.63;;;22.20
78369;BMP280;71113;43.092;-89.268;2023-07-08T15:01:17;97854.28;;;22.12